Time;durP1;ratioP1;P1;durP2;ratioP2;P2;SDS_P1;SDS_P2;PMS_P1;PMS_P2;Temp;Humidity;BMP_temperature;BMP_pressure;BME280_temperature;BME280_humidity;BME280_pressure;Samples;Min_cycle;Max_cycle;Signal;HPM_P1;HPM_P2
2023/07/10 00:00:21;;;;;;;44.27;39.43;;;;;;;;;;5074724;28;20445;-77
2023/07/10 00:02:48;;;;;;;43.87;38.93;;;;;;;;;;5057051;28;20403;-76
2023/07/10 00:05:15;;;;;;;47.40;39.10;;;;;;;;;;5073722;28;20407;-76
2023/07/10 00:07:42;;;;;;;41.60;35.80;;;;;;;;;;5075208;28;20406;-76
2023/07/10 00:10:10;;;;;;;39.40;33.93;;;;;;;;;;5052338;28;21128;-77
2023/07/10 00:12:36;;;;;;;47.07;36.20;;;;;;;;;;5073458;28;20450;-76
2023/07/10 00:15:10;;;;;;;47.63;36.13;;;;;;;;;;5074645;28;20381;-76
2023/07/10 00:17:36;;;;;;;47.00;37.03;;;;;;;;;;5074745;28;20432;-76
2023/07/10 00:20:05;;;;;;;44.63;35.93;;;;;;;;;;5073528;28;20422;-76
2023/07/10 00:22:31;;;;;;;40.33;36.00;;;;;;;;;;5056715;28;20446;-76
2023/07/10 00:24:57;;;;;;;43.87;37.80;;;;;;;;;;5074813;28;20396;-78
2023/07/10 00:27:23;;;;;;;52.93;38.00;;;;;;;;;;5056101;28;20411;-76
2023/07/10 00:29:49;;;;;;;48.17;39.50;;;;;;;;;;5074404;28;20436;-77
2023/07/10 00:32:15;;;;;;;57.87;38.13;;;;;;;;;;5056592;28;20730;-77
2023/07/10 00:34:41;;;;;;;51.97;37.30;;;;;;;;;;5055818;28;20390;-77
2023/07/10 00:37:07;;;;;;;49.53;36.70;;;;;;;;;;5074055;28;20399;-76
2023/07/10 00:39:36;;;;;;;47.50;36.60;;;;;;;;;;5056525;28;20451;-77
2023/07/10 00:42:03;;;;;;;38.47;32.90;;;;;;;;;;5073292;28;20457;-77
2023/07/10 00:44:33;;;;;;;43.87;36.10;;;;;;;;;;5074801;28;20803;-76
2023/07/10 00:47:02;;;;;;;45.73;36.87;;;;;;;;;;5074079;28;20405;-78
2023/07/10 00:49:32;;;;;;;70.53;37.00;;;;;;;;;;5074369;28;20841;-77
2023/07/10 00:51:58;;;;;;;51.13;37.70;;;;;;;;;;5093293;28;20385;-76
2023/07/10 00:54:36;;;;;;;54.57;38.40;;;;;;;;;;5092089;28;20388;-77
2023/07/10 00:57:05;;;;;;;48.77;35.80;;;;;;;;;;5092510;28;20412;-77
2023/07/10 00:59:36;;;;;;;40.93;36.53;;;;;;;;;;5092162;28;20480;-76
2023/07/10 01:02:02;;;;;;;39.77;35.37;;;;;;;;;;5092052;28;20825;-77
2023/07/10 01:04:28;;;;;;;41.93;33.43;;;;;;;;;;5091598;28;20469;-77
2023/07/10 01:06:54;;;;;;;38.07;33.00;;;;;;;;;;5093589;28;20425;-77
2023/07/10 01:09:21;;;;;;;40.33;34.60;;;;;;;;;;5092859;28;20432;-77
2023/07/10 01:11:47;;;;;;;41.07;33.63;;;;;;;;;;5089516;28;20411;-77
2023/07/10 01:14:15;;;;;;;36.63;32.63;;;;;;;;;;5092938;28;20426;-77
2023/07/10 01:16:41;;;;;;;39.00;34.30;;;;;;;;;;5093403;28;20862;-77
2023/07/10 01:19:11;;;;;;;43.00;32.77;;;;;;;;;;5092317;28;20410;-77
2023/07/10 01:21:39;;;;;;;40.70;31.90;;;;;;;;;;5093022;28;20364;-77
2023/07/10 01:24:05;;;;;;;37.03;32.97;;;;;;;;;;5091585;28;20411;-78
2023/07/10 01:26:32;;;;;;;46.90;31.73;;;;;;;;;;5091538;28;20406;-77
2023/07/10 01:28:58;;;;;;;35.80;32.10;;;;;;;;;;5092089;28;20411;-77
2023/07/10 01:31:25;;;;;;;41.30;31.60;;;;;;;;;;5092835;28;20575;-77
2023/07/10 01:33:56;;;;;;;35.43;31.70;;;;;;;;;;5091315;28;20408;-78
2023/07/10 01:36:27;;;;;;;34.00;30.57;;;;;;;;;;5091966;28;20441;-77
2023/07/10 01:39:03;;;;;;;40.77;32.17;;;;;;;;;;5091876;28;20414;-76
2023/07/10 01:41:34;;;;;;;35.43;31.63;;;;;;;;;;5092860;28;20361;-77
2023/07/10 01:44:00;;;;;;;36.83;31.73;;;;;;;;;;5093664;28;20373;-76
2023/07/10 01:46:28;;;;;;;37.03;33.13;;;;;;;;;;5091763;28;20523;-76
2023/07/10 01:48:55;;;;;;;37.53;33.43;;;;;;;;;;5056585;28;1079904;-76
2023/07/10 01:51:21;;;;;;;38.73;34.83;;;;;;;;;;5097351;28;20417;-77
2023/07/10 01:53:48;;;;;;;37.13;32.87;;;;;;;;;;5097090;28;20437;-76
2023/07/10 01:56:15;;;;;;;38.03;34.13;;;;;;;;;;5096538;28;20992;-76
2023/07/10 01:58:41;;;;;;;35.83;32.00;;;;;;;;;;5096414;28;20425;-76
2023/07/10 02:01:07;;;;;;;39.87;33.77;;;;;;;;;;5079490;28;20405;-76
2023/07/10 02:03:33;;;;;;;37.73;32.67;;;;;;;;;;5096821;28;20413;-76
2023/07/10 02:05:59;;;;;;;39.50;31.77;;;;;;;;;;5098264;28;20384;-76
2023/07/10 02:08:25;;;;;;;35.97;32.10;;;;;;;;;;5097393;28;20389;-76
2023/07/10 02:10:51;;;;;;;40.40;31.77;;;;;;;;;;5096474;28;20439;-75
2023/07/10 02:13:17;;;;;;;34.47;30.60;;;;;;;;;;5096137;28;20401;-76
2023/07/10 02:15:43;;;;;;;34.13;30.50;;;;;;;;;;5098014;28;20505;-76
2023/07/10 02:18:09;;;;;;;35.00;31.27;;;;;;;;;;5079459;28;20992;-77
2023/07/10 02:20:35;;;;;;;34.73;31.17;;;;;;;;;;5097856;28;20500;-77
2023/07/10 02:23:01;;;;;;;40.83;30.97;;;;;;;;;;5096459;28;20501;-76
2023/07/10 02:25:27;;;;;;;38.23;29.53;;;;;;;;;;5095878;28;20483;-76
2023/07/10 02:27:53;;;;;;;33.00;29.40;;;;;;;;;;5097717;28;20407;-76
2023/07/10 02:30:19;;;;;;;33.30;29.07;;;;;;;;;;5095907;28;20821;-76
2023/07/10 02:32:45;;;;;;;34.77;31.03;;;;;;;;;;5079425;28;20429;-76
2023/07/10 02:35:11;;;;;;;32.20;28.63;;;;;;;;;;5096779;28;20407;-77
2023/07/10 02:37:37;;;;;;;33.47;29.97;;;;;;;;;;5097593;28;20977;-76
2023/07/10 02:40:03;;;;;;;36.07;30.87;;;;;;;;;;5096245;28;20794;-76
2023/07/10 02:42:29;;;;;;;34.97;31.10;;;;;;;;;;5097549;28;20377;-77
2023/07/10 02:44:55;;;;;;;37.63;33.10;;;;;;;;;;5096240;28;20410;-77
2023/07/10 02:47:21;;;;;;;42.37;32.40;;;;;;;;;;5096999;28;20444;-76
2023/07/10 02:49:47;;;;;;;39.47;33.10;;;;;;;;;;5097189;28;20512;-77
2023/07/10 02:52:13;;;;;;;38.40;34.47;;;;;;;;;;5096192;28;20406;-77
2023/07/10 02:54:39;;;;;;;39.73;34.10;;;;;;;;;;5096926;28;20406;-77
2023/07/10 02:57:05;;;;;;;42.37;33.03;;;;;;;;;;5095982;28;20393;-78
2023/07/10 02:59:31;;;;;;;38.30;33.97;;;;;;;;;;5097079;28;20734;-77
2023/07/10 03:01:59;;;;;;;38.40;33.93;;;;;;;;;;5097601;28;20377;-77
2023/07/10 03:04:25;;;;;;;38.87;33.67;;;;;;;;;;5096766;28;20441;-77
2023/07/10 03:06:51;;;;;;;44.73;35.10;;;;;;;;;;5095776;28;20426;-77
2023/07/10 03:09:17;;;;;;;41.53;32.23;;;;;;;;;;5095842;28;20384;-77
2023/07/10 03:11:44;;;;;;;39.30;32.93;;;;;;;;;;5095590;28;20529;-76
2023/07/10 03:14:09;;;;;;;40.53;34.00;;;;;;;;;;5096886;28;20404;-77
2023/07/10 03:16:35;;;;;;;42.43;33.70;;;;;;;;;;5095441;28;20449;-76
2023/07/10 03:19:01;;;;;;;40.33;30.80;;;;;;;;;;5095364;28;20418;-76
2023/07/10 03:21:27;;;;;;;39.00;30.70;;;;;;;;;;5094998;28;20400;-76
2023/07/10 03:23:53;;;;;;;44.67;31.90;;;;;;;;;;5096523;28;20518;-76
2023/07/10 03:26:19;;;;;;;36.80;29.10;;;;;;;;;;5096313;28;20477;-76
2023/07/10 03:28:45;;;;;;;42.40;29.40;;;;;;;;;;5096513;28;20740;-76
2023/07/10 03:31:11;;;;;;;31.17;24.83;;;;;;;;;;5095157;28;20470;-77
2023/07/10 03:33:37;;;;;;;37.07;26.30;;;;;;;;;;5096423;28;20495;-76
2023/07/10 03:36:08;;;;;;;30.43;24.23;;;;;;;;;;5096306;28;20925;-76
2023/07/10 03:38:34;;;;;;;32.43;24.20;;;;;;;;;;5097009;28;20777;-77
2023/07/10 03:41:00;;;;;;;31.73;22.53;;;;;;;;;;5096527;28;20474;-77
2023/07/10 03:43:27;;;;;;;32.40;23.90;;;;;;;;;;5094900;28;20456;-77
2023/07/10 03:45:54;;;;;;;30.93;21.77;;;;;;;;;;5095915;28;20464;-77
2023/07/10 03:48:20;;;;;;;30.97;22.80;;;;;;;;;;5094394;28;20397;-77
2023/07/10 03:50:46;;;;;;;27.70;22.17;;;;;;;;;;5095404;28;20461;-77
2023/07/10 03:53:12;;;;;;;32.30;22.70;;;;;;;;;;5094902;28;20385;-77
2023/07/10 03:55:38;;;;;;;28.03;21.00;;;;;;;;;;5094646;28;20476;-76
2023/07/10 03:58:16;;;;;;;27.07;19.50;;;;;;;;;;5095932;28;20382;-76
2023/07/10 04:00:42;;;;;;;28.03;19.77;;;;;;;;;;5095987;28;20444;-76
2023/07/10 04:03:08;;;;;;;25.00;19.63;;;;;;;;;;5094563;28;20437;-77
2023/07/10 04:05:35;;;;;;;21.67;17.83;;;;;;;;;;5094520;28;20396;-76
2023/07/10 04:08:01;;;;;;;24.77;17.87;;;;;;;;;;5096142;28;20439;-77
2023/07/10 04:10:26;;;;;;;27.33;17.83;;;;;;;;;;5095018;28;20412;-77
2023/07/10 04:12:52;;;;;;;23.93;15.20;;;;;;;;;;5094496;28;20438;-76
2023/07/10 04:15:18;;;;;;;23.97;15.97;;;;;;;;;;5094057;28;20475;-77
2023/07/10 04:17:44;;;;;;;20.07;15.20;;;;;;;;;;5094898;28;20388;-76
2023/07/10 04:20:10;;;;;;;22.13;14.70;;;;;;;;;;5094074;28;20460;-78
2023/07/10 04:22:36;;;;;;;17.23;13.13;;;;;;;;;;5096203;28;20402;-76
2023/07/10 04:25:05;;;;;;;22.53;13.60;;;;;;;;;;5094629;28;20388;-76
2023/07/10 04:27:32;;;;;;;21.03;12.40;;;;;;;;;;5094314;28;20396;-77
2023/07/10 04:30:00;;;;;;;14.03;11.13;;;;;;;;;;5077497;28;20389;-76
2023/07/10 04:32:25;;;;;;;11.40;10.20;;;;;;;;;;5093660;28;20433;-77
2023/07/10 04:34:52;;;;;;;13.87;9.10;;;;;;;;;;5095775;28;20385;-76
2023/07/10 04:37:18;;;;;;;19.87;9.13;;;;;;;;;;5095971;28;20447;-77
2023/07/10 04:39:44;;;;;;;14.73;9.70;;;;;;;;;;5095597;28;20807;-77
2023/07/10 04:42:10;;;;;;;17.63;9.33;;;;;;;;;;5077096;28;20411;-76
2023/07/10 04:44:35;;;;;;;16.80;8.30;;;;;;;;;;5077130;28;20452;-76
2023/07/10 04:47:02;;;;;;;13.33;9.17;;;;;;;;;;5077563;28;20427;-76
2023/07/10 04:49:28;;;;;;;15.80;8.50;;;;;;;;;;5093871;28;20829;-76
2023/07/10 04:51:54;;;;;;;19.43;9.77;;;;;;;;;;5094667;28;20515;-76
2023/07/10 04:54:20;;;;;;;19.20;9.80;;;;;;;;;;5095711;28;20377;-76
2023/07/10 04:56:46;;;;;;;20.63;8.90;;;;;;;;;;5077469;28;20417;-76
2023/07/10 04:59:12;;;;;;;17.83;9.10;;;;;;;;;;5093542;28;20411;-78
2023/07/10 05:01:38;;;;;;;8.70;7.30;;;;;;;;;;5095018;28;20377;-76
2023/07/10 05:04:04;;;;;;;21.00;9.63;;;;;;;;;;5093928;28;20460;-76
2023/07/10 05:06:30;;;;;;;12.37;8.63;;;;;;;;;;5093758;28;20391;-76
2023/07/10 05:08:58;;;;;;;11.33;8.30;;;;;;;;;;5095015;28;20464;-76
2023/07/10 05:11:26;;;;;;;15.10;10.60;;;;;;;;;;5094604;28;20398;-76
2023/07/10 05:13:52;;;;;;;12.87;9.47;;;;;;;;;;5094081;28;20958;-77
2023/07/10 05:16:18;;;;;;;15.10;9.20;;;;;;;;;;5093498;28;20406;-76
2023/07/10 05:18:44;;;;;;;14.20;8.40;;;;;;;;;;5095120;28;20388;-77
2023/07/10 05:21:10;;;;;;;14.43;9.43;;;;;;;;;;5093653;28;21017;-77
2023/07/10 05:23:36;;;;;;;14.20;8.53;;;;;;;;;;5094689;28;20466;-76
2023/07/10 05:26:04;;;;;;;15.27;9.70;;;;;;;;;;5077329;28;20385;-76
2023/07/10 05:28:30;;;;;;;13.87;8.40;;;;;;;;;;5093407;28;20390;-76
2023/07/10 05:31:00;;;;;;;9.73;8.00;;;;;;;;;;5093237;28;20412;-76
2023/07/10 05:33:26;;;;;;;13.43;9.37;;;;;;;;;;5094596;28;20394;-77
2023/07/10 05:35:53;;;;;;;13.23;8.13;;;;;;;;;;5094291;28;20459;-76
2023/07/10 05:38:20;;;;;;;11.30;8.27;;;;;;;;;;5076676;28;20414;-77
2023/07/10 05:40:46;;;;;;;18.57;8.40;;;;;;;;;;5093161;28;20471;-76
2023/07/10 05:43:12;;;;;;;18.40;9.93;;;;;;;;;;5093541;28;20406;-76
2023/07/10 05:45:38;;;;;;;17.20;9.00;;;;;;;;;;5092962;28;20953;-76
2023/07/10 05:48:04;;;;;;;15.33;9.20;;;;;;;;;;5093285;28;20414;-76
2023/07/10 05:50:30;;;;;;;19.80;9.57;;;;;;;;;;5094211;28;20392;-77
2023/07/10 05:52:56;;;;;;;16.80;9.93;;;;;;;;;;5093401;28;20406;-77
2023/07/10 05:55:22;;;;;;;17.50;10.50;;;;;;;;;;5093048;28;20381;-76
2023/07/10 05:57:48;;;;;;;16.80;11.13;;;;;;;;;;5094418;28;20369;-76
2023/07/10 06:00:14;;;;;;;19.73;11.43;;;;;;;;;;5092946;28;20444;-76
2023/07/10 06:02:40;;;;;;;19.43;10.47;;;;;;;;;;5076174;28;20393;-76
2023/07/10 06:05:07;;;;;;;18.70;10.87;;;;;;;;;;5094631;28;20398;-76
2023/07/10 06:07:33;;;;;;;19.87;11.60;;;;;;;;;;5094080;28;20464;-76
2023/07/10 06:09:59;;;;;;;20.97;13.47;;;;;;;;;;5077052;28;20418;-77
2023/07/10 06:12:25;;;;;;;18.13;11.37;;;;;;;;;;5092791;28;20914;-77
2023/07/10 06:14:51;;;;;;;17.80;11.37;;;;;;;;;;5094328;28;20502;-76
2023/07/10 06:17:17;;;;;;;17.30;11.83;;;;;;;;;;5092952;28;20427;-78
2023/07/10 06:19:43;;;;;;;19.90;12.10;;;;;;;;;;5092611;28;20453;-76
2023/07/10 06:22:11;;;;;;;17.23;12.90;;;;;;;;;;5092669;28;20440;-76
2023/07/10 06:24:37;;;;;;;18.73;12.37;;;;;;;;;;5094157;28;20373;-77
2023/07/10 06:27:03;;;;;;;16.00;12.90;;;;;;;;;;5092863;28;20832;-77
2023/07/10 06:29:31;;;;;;;20.27;12.37;;;;;;;;;;5093952;28;20845;-77
2023/07/10 06:31:57;;;;;;;17.20;11.30;;;;;;;;;;5094598;28;20544;-77
2023/07/10 06:34:23;;;;;;;15.60;11.73;;;;;;;;;;5096115;28;20469;-77
2023/07/10 06:36:49;;;;;;;15.33;10.60;;;;;;;;;;5097110;28;20410;-76
2023/07/10 06:39:15;;;;;;;17.33;11.00;;;;;;;;;;5096710;28;20424;-76
2023/07/10 06:41:41;;;;;;;20.17;10.77;;;;;;;;;;5097700;28;20853;-77
2023/07/10 06:44:07;;;;;;;13.10;10.17;;;;;;;;;;5096185;28;20385;-77
2023/07/10 06:46:33;;;;;;;23.17;11.37;;;;;;;;;;5096000;28;20425;-77
2023/07/10 06:48:59;;;;;;;13.03;9.30;;;;;;;;;;5097381;28;20472;-76
2023/07/10 06:51:25;;;;;;;10.57;9.43;;;;;;;;;;5095963;28;20475;-77
2023/07/10 06:53:51;;;;;;;13.07;9.20;;;;;;;;;;5096745;28;20430;-76
2023/07/10 06:56:17;;;;;;;13.47;9.33;;;;;;;;;;5096121;28;20930;-78
2023/07/10 06:58:43;;;;;;;10.33;7.50;;;;;;;;;;5079131;28;20484;-76
2023/07/10 07:01:09;;;;;;;12.17;7.77;;;;;;;;;;5096367;28;20794;-76
2023/07/10 07:03:35;;;;;;;12.73;6.70;;;;;;;;;;5097119;28;20548;-76
2023/07/10 07:06:05;;;;;;;11.90;7.07;;;;;;;;;;5079202;28;20880;-77
2023/07/10 07:08:31;;;;;;;10.50;7.27;;;;;;;;;;5095981;28;20509;-78
2023/07/10 07:10:56;;;;;;;8.70;6.10;;;;;;;;;;5095474;28;20425;-77
2023/07/10 07:13:23;;;;;;;12.97;6.50;;;;;;;;;;5096996;28;20396;-78
2023/07/10 07:15:49;;;;;;;9.60;5.93;;;;;;;;;;5095501;28;20431;-76
2023/07/10 07:18:15;;;;;;;10.03;4.93;;;;;;;;;;5096978;28;21702;-77
2023/07/10 07:20:41;;;;;;;10.17;5.70;;;;;;;;;;5078607;28;20904;-77
2023/07/10 07:23:07;;;;;;;7.83;5.20;;;;;;;;;;5096472;28;20464;-77
2023/07/10 07:25:33;;;;;;;12.00;4.90;;;;;;;;;;5095556;28;20425;-77
2023/07/10 07:27:59;;;;;;;9.70;4.17;;;;;;;;;;5095733;28;20406;-77
2023/07/10 07:30:26;;;;;;;5.77;4.63;;;;;;;;;;5095253;28;20908;-77
2023/07/10 07:32:52;;;;;;;6.27;4.40;;;;;;;;;;5095336;28;20388;-77
2023/07/10 07:35:18;;;;;;;4.57;3.53;;;;;;;;;;5095302;28;20411;-76
2023/07/10 07:37:44;;;;;;;6.57;4.10;;;;;;;;;;5095268;28;20505;-77
2023/07/10 07:40:10;;;;;;;7.53;4.10;;;;;;;;;;5095479;28;20465;-77
2023/07/10 07:42:36;;;;;;;6.77;4.10;;;;;;;;;;5096278;28;20407;-77
2023/07/10 07:45:02;;;;;;;5.50;3.60;;;;;;;;;;5095159;28;20395;-77
2023/07/10 07:47:28;;;;;;;5.83;4.10;;;;;;;;;;5095168;28;20869;-77
2023/07/10 07:49:55;;;;;;;7.30;4.00;;;;;;;;;;5078147;28;20452;-77
2023/07/10 07:52:21;;;;;;;7.40;4.13;;;;;;;;;;5078638;28;20509;-77
2023/07/10 07:54:48;;;;;;;9.00;4.00;;;;;;;;;;5078209;28;20449;-78
2023/07/10 07:57:14;;;;;;;6.27;4.07;;;;;;;;;;5094792;28;20472;-78
2023/07/10 07:59:40;;;;;;;6.47;4.00;;;;;;;;;;5094694;28;20531;-77
2023/07/10 08:02:06;;;;;;;5.80;4.20;;;;;;;;;;5096230;28;20463;-78
2023/07/10 08:04:32;;;;;;;6.10;3.30;;;;;;;;;;5094868;28;20440;-78
2023/07/10 08:06:58;;;;;;;6.50;3.33;;;;;;;;;;5095137;28;20813;-77
2023/07/10 08:09:24;;;;;;;8.30;2.47;;;;;;;;;;5094898;28;20411;-79
2023/07/10 08:11:50;;;;;;;4.47;2.50;;;;;;;;;;5095996;28;20917;-77
2023/07/10 08:14:16;;;;;;;3.87;1.90;;;;;;;;;;5094861;28;20415;-77
2023/07/10 08:16:42;;;;;;;4.20;2.40;;;;;;;;;;5094281;28;20397;-77
2023/07/10 08:19:08;;;;;;;4.97;2.40;;;;;;;;;;5096191;28;20481;-77
2023/07/10 08:21:34;;;;;;;4.37;2.50;;;;;;;;;;5077409;28;20556;-78
2023/07/10 08:24:00;;;;;;;3.87;2.17;;;;;;;;;;5077698;28;20514;-77
2023/07/10 08:26:26;;;;;;;5.57;3.20;;;;;;;;;;5094265;28;20460;-80
2023/07/10 08:28:52;;;;;;;4.70;2.10;;;;;;;;;;5094304;28;20414;-77
2023/07/10 08:31:18;;;;;;;3.70;2.60;;;;;;;;;;5093986;28;20381;-78
2023/07/10 08:33:44;;;;;;;6.57;2.30;;;;;;;;;;5095248;28;20402;-77
2023/07/10 08:36:10;;;;;;;6.07;2.30;;;;;;;;;;5093754;28;20952;-78
2023/07/10 08:38:37;;;;;;;5.10;3.07;;;;;;;;;;5076977;28;20421;-78
2023/07/10 08:41:23;;;;;;;4.47;2.43;;;;;;;;;;5094018;28;20462;-77
2023/07/10 08:43:49;;;;;;;6.27;2.77;;;;;;;;;;5095108;28;20418;-78
2023/07/10 08:46:18;;;;;;;6.03;2.30;;;;;;;;;;5094086;28;20933;-77
2023/07/10 08:48:54;;;;;;;3.80;2.10;;;;;;;;;;5094573;28;20823;-77
2023/07/10 08:51:20;;;;;;;2.73;1.97;;;;;;;;;;5095171;28;20414;-77
2023/07/10 08:54:00;;;;;;;5.40;2.10;;;;;;;;;;5094875;28;20415;-77
2023/07/10 08:56:28;;;;;;;3.63;2.40;;;;;;;;;;5094716;28;20407;-77
2023/07/10 08:58:58;;;;;;;3.40;1.80;;;;;;;;;;5093443;28;20774;-85
2023/07/10 09:01:30;;;;;;;3.60;2.00;;;;;;;;;;5092952;28;20451;-87
2023/07/10 09:03:58;;;;;;;2.80;2.03;;;;;;;;;;5092748;28;20500;-89
2023/07/10 09:06:44;;;;;;;4.20;2.20;;;;;;;;;;5093028;28;20918;-87
2023/07/10 09:09:34;;;;;;;2.50;2.10;;;;;;;;;;5092354;28;20803;-88
2023/07/10 09:12:03;;;;;;;4.83;2.00;;;;;;;;;;5079772;28;20991;-88
2023/07/10 09:14:49;;;;;;;6.10;2.00;;;;;;;;;;5095168;28;20441;-89
2023/07/10 09:17:26;;;;;;;3.70;2.37;;;;;;;;;;5092757;28;20411;-84
2023/07/10 09:19:53;;;;;;;3.23;2.17;;;;;;;;;;5091769;28;20466;-89
2023/07/10 09:22:20;;;;;;;2.13;1.60;;;;;;;;;;5089609;28;20960;-85
2023/07/10 09:24:46;;;;;;;3.73;1.87;;;;;;;;;;5072943;28;20514;-85
2023/07/10 09:27:12;;;;;;;3.00;1.60;;;;;;;;;;5091617;28;20448;-87
2023/07/10 09:29:39;;;;;;;4.43;2.10;;;;;;;;;;5075505;28;20422;-87
2023/07/10 09:32:05;;;;;;;3.73;1.50;;;;;;;;;;5093844;28;20844;-91
2023/07/10 09:34:33;;;;;;;3.23;1.40;;;;;;;;;;5093214;28;20414;-83
2023/07/10 09:37:00;;;;;;;2.50;1.50;;;;;;;;;;5091748;28;20421;-82
2023/07/10 09:39:30;;;;;;;3.57;1.50;;;;;;;;;;5092247;28;20414;-81
2023/07/10 09:41:57;;;;;;;3.43;1.83;;;;;;;;;;5093279;28;20752;-81
2023/07/10 09:44:23;;;;;;;3.83;1.80;;;;;;;;;;5091096;28;20414;-83
2023/07/10 09:46:50;;;;;;;2.33;1.70;;;;;;;;;;5091699;28;20798;-82
2023/07/10 09:49:20;;;;;;;4.23;1.70;;;;;;;;;;5091044;28;20482;-82
2023/07/10 09:51:56;;;;;;;3.90;1.50;;;;;;;;;;5091217;28;20981;-81
2023/07/10 09:54:22;;;;;;;2.53;1.40;;;;;;;;;;5092135;28;20414;-81
2023/07/10 09:56:48;;;;;;;6.10;1.93;;;;;;;;;;5091587;28;20414;-80
2023/07/10 09:59:22;;;;;;;2.90;1.50;;;;;;;;;;5093105;28;20402;-82
2023/07/10 10:01:50;;;;;;;2.03;1.13;;;;;;;;;;5093031;28;20421;-81
2023/07/10 10:04:23;;;;;;;6.53;2.07;;;;;;;;;;5092838;28;20794;-81
2023/07/10 10:06:59;;;;;;;2.47;1.73;;;;;;;;;;5091488;28;20764;-82
2023/07/10 10:09:27;;;;;;;3.00;1.87;;;;;;;;;;5094059;28;20566;-83
2023/07/10 10:11:55;;;;;;;3.17;1.80;;;;;;;;;;5095331;28;20414;-84
2023/07/10 10:14:30;;;;;;;2.93;1.60;;;;;;;;;;5097200;28;20406;-81
2023/07/10 10:16:59;;;;;;;2.90;1.80;;;;;;;;;;5095944;28;20876;-81
2023/07/10 10:19:28;;;;;;;5.23;1.70;;;;;;;;;;5095322;28;20434;-83
2023/07/10 10:21:54;;;;;;;2.93;1.60;;;;;;;;;;5095061;28;20414;-82
2023/07/10 10:24:20;;;;;;;3.83;1.27;;;;;;;;;;5095328;28;20890;-83
2023/07/10 10:26:51;;;;;;;5.93;1.80;;;;;;;;;;5095382;28;20407;-83
2023/07/10 10:29:17;;;;;;;4.73;2.30;;;;;;;;;;5095398;28;20418;-82
2023/07/10 10:31:52;;;;;;;2.17;1.50;;;;;;;;;;5095139;28;20799;-83
2023/07/10 10:34:21;;;;;;;3.37;2.10;;;;;;;;;;5095187;28;20812;-83
2023/07/10 10:36:55;;;;;;;1.90;1.60;;;;;;;;;;5094999;28;20418;-82
2023/07/10 10:39:32;;;;;;;4.20;2.00;;;;;;;;;;5096672;28;20389;-86
2023/07/10 10:42:01;;;;;;;3.63;2.00;;;;;;;;;;5094399;28;20446;-89
2023/07/10 10:44:27;;;;;;;3.50;1.60;;;;;;;;;;5092828;28;20414;-87
2023/07/10 10:46:56;;;;;;;3.67;1.60;;;;;;;;;;5096173;28;20487;-91
2023/07/10 10:49:38;;;;;;;3.70;1.60;;;;;;;;;;5095394;28;20477;-89
2023/07/10 10:52:04;;;;;;;3.53;1.40;;;;;;;;;;5095371;28;20937;-88
2023/07/10 10:54:36;;;;;;;3.20;1.57;;;;;;;;;;5096188;28;20414;-88
2023/07/10 10:57:21;;;;;;;3.00;1.57;;;;;;;;;;5093829;28;20414;-90
2023/07/10 10:59:57;;;;;;;3.33;1.70;;;;;;;;;;5095976;28;20457;-86
2023/07/10 11:02:49;;;;;;;3.40;1.87;;;;;;;;;;5096156;28;20759;-89
2023/07/10 11:05:34;;;;;;;2.13;1.70;;;;;;;;;;5093958;28;20437;-90
2023/07/10 11:08:02;;;;;;;3.57;2.03;;;;;;;;;;5095102;28;20418;-88
2023/07/10 11:10:36;;;;;;;4.20;1.90;;;;;;;;;;5094392;28;20505;-89
2023/07/10 11:13:03;;;;;;;5.23;1.57;;;;;;;;;;5093375;28;20523;-88
2023/07/10 11:15:30;;;;;;;2.73;1.50;;;;;;;;;;5094337;28;20403;-87
2023/07/10 11:17:57;;;;;;;4.93;1.80;;;;;;;;;;5094165;28;20410;-87
2023/07/10 11:20:25;;;;;;;2.13;1.40;;;;;;;;;;5093285;28;20504;-87
2023/07/10 11:23:00;;;;;;;2.37;1.70;;;;;;;;;;5094399;28;20905;-85
2023/07/10 11:25:30;;;;;;;3.37;2.00;;;;;;;;;;5095938;28;20439;-87
2023/07/10 11:27:56;;;;;;;4.93;2.10;;;;;;;;;;5093239;28;20579;-87
2023/07/10 11:30:31;;;;;;;3.53;1.70;;;;;;;;;;5094076;28;20458;-87
2023/07/10 11:33:15;;;;;;;5.30;1.80;;;;;;;;;;5095356;28;20390;-86
2023/07/10 11:36:00;;;;;;;2.80;1.43;;;;;;;;;;5095756;28;20398;-89
2023/07/10 11:38:27;;;;;;;4.20;1.77;;;;;;;;;;5096835;28;20776;-88
2023/07/10 11:40:53;;;;;;;3.93;1.80;;;;;;;;;;5094801;28;20857;-89
2023/07/10 11:43:25;;;;;;;2.33;1.70;;;;;;;;;;5094306;28;20414;-85
2023/07/10 11:46:03;;;;;;;6.73;1.77;;;;;;;;;;5090215;28;20471;-87
2023/07/10 11:48:34;;;;;;;2.80;1.47;;;;;;;;;;5093680;28;20465;-85
2023/07/10 11:51:01;;;;;;;2.03;1.27;;;;;;;;;;5093851;28;20480;-87
2023/07/10 11:53:27;;;;;;;3.07;1.60;;;;;;;;;;5093908;28;20399;-87
2023/07/10 11:55:56;;;;;;;5.17;1.80;;;;;;;;;;5075980;28;20979;-87
2023/07/10 11:58:24;;;;;;;4.57;2.00;;;;;;;;;;5093394;28;20484;-87
2023/07/10 12:00:50;;;;;;;2.20;1.60;;;;;;;;;;5095036;28;20993;-87
2023/07/10 12:03:16;;;;;;;4.70;1.80;;;;;;;;;;5075693;28;20418;-85
2023/07/10 12:05:43;;;;;;;1.77;1.40;;;;;;;;;;5092518;28;20966;-86
2023/07/10 12:08:09;;;;;;;2.97;1.50;;;;;;;;;;5093527;28;20842;-88
2023/07/10 12:10:39;;;;;;;3.00;1.57;;;;;;;;;;5092674;28;20418;-85
2023/07/10 12:13:27;;;;;;;3.70;1.50;;;;;;;;;;5094110;28;20765;-85
2023/07/10 12:15:54;;;;;;;2.80;1.67;;;;;;;;;;5093064;28;20418;-85
2023/07/10 12:18:40;;;;;;;3.57;1.60;;;;;;;;;;5092084;28;20480;-87
2023/07/10 12:21:11;;;;;;;3.70;1.60;;;;;;;;;;5094733;28;20454;-86
2023/07/10 12:23:37;;;;;;;5.70;1.67;;;;;;;;;;5093047;28;20433;-84
2023/07/10 12:26:07;;;;;;;2.23;1.50;;;;;;;;;;5093918;28;20398;-87
2023/07/10 12:28:33;;;;;;;2.50;1.40;;;;;;;;;;5076687;28;20422;-86
2023/07/10 12:30:59;;;;;;;2.00;1.80;;;;;;;;;;5091764;28;20497;-85
2023/07/10 12:33:28;;;;;;;4.87;1.70;;;;;;;;;;5092107;28;20968;-89
2023/07/10 12:35:54;;;;;;;2.90;1.73;;;;;;;;;;5094044;28;20822;-88
2023/07/10 12:38:20;;;;;;;3.70;1.50;;;;;;;;;;5094082;28;20773;-87
2023/07/10 12:40:46;;;;;;;4.37;2.13;;;;;;;;;;5091605;28;20949;-88
2023/07/10 12:43:22;;;;;;;3.50;1.60;;;;;;;;;;5075864;28;20414;-87
2023/07/10 12:45:55;;;;;;;2.60;1.47;;;;;;;;;;5090958;28;20476;-85
2023/07/10 12:48:22;;;;;;;3.30;1.30;;;;;;;;;;5092636;28;20775;-87
2023/07/10 12:50:51;;;;;;;2.43;1.37;;;;;;;;;;5093715;28;20395;-85
2023/07/10 12:53:19;;;;;;;4.27;1.73;;;;;;;;;;5093544;28;20407;-87
2023/07/10 12:55:45;;;;;;;3.40;1.50;;;;;;;;;;5092645;28;20418;-87
2023/07/10 12:58:13;;;;;;;3.33;1.47;;;;;;;;;;5094189;28;20419;-86
2023/07/10 13:00:42;;;;;;;5.70;2.03;;;;;;;;;;5093520;28;20788;-84
2023/07/10 13:03:19;;;;;;;2.43;1.60;;;;;;;;;;5093082;28;20394;-85
2023/07/10 13:05:50;;;;;;;3.20;1.80;;;;;;;;;;5093519;28;20429;-87
2023/07/10 13:08:16;;;;;;;3.60;1.30;;;;;;;;;;5092567;28;20502;-85
2023/07/10 13:10:45;;;;;;;3.03;1.40;;;;;;;;;;5091557;28;20454;-83
2023/07/10 13:13:14;;;;;;;3.67;1.70;;;;;;;;;;5091941;28;20423;-87
2023/07/10 13:15:40;;;;;;;2.20;1.23;;;;;;;;;;5092261;28;20414;-88
2023/07/10 13:18:14;;;;;;;3.57;2.00;;;;;;;;;;5091550;28;20398;-87
2023/07/10 13:20:40;;;;;;;2.70;1.40;;;;;;;;;;5092220;28;20462;-85
2023/07/10 13:23:06;;;;;;;2.87;1.67;;;;;;;;;;5093256;28;20398;-87
2023/07/10 13:25:34;;;;;;;3.47;1.87;;;;;;;;;;5074864;28;20418;-87
2023/07/10 13:28:10;;;;;;;3.40;1.60;;;;;;;;;;5091857;28;20411;-87
2023/07/10 13:30:36;;;;;;;5.67;1.57;;;;;;;;;;5092192;28;20410;-85
2023/07/10 13:33:10;;;;;;;5.97;1.80;;;;;;;;;;5090963;28;20425;-84
2023/07/10 13:35:36;;;;;;;2.83;1.60;;;;;;;;;;5093437;28;20393;-84
2023/07/10 13:38:05;;;;;;;2.13;1.50;;;;;;;;;;5091773;28;20906;-86
2023/07/10 13:40:31;;;;;;;3.73;1.37;;;;;;;;;;5091260;28;20462;-85
2023/07/10 13:42:57;;;;;;;3.00;1.70;;;;;;;;;;5093345;28;20455;-86
2023/07/10 13:45:23;;;;;;;3.57;1.43;;;;;;;;;;5095975;28;20504;-88
2023/07/10 13:47:50;;;;;;;5.03;1.70;;;;;;;;;;5094059;28;20440;-85
2023/07/10 13:50:16;;;;;;;5.50;2.10;;;;;;;;;;5079376;28;20469;-86
2023/07/10 13:52:42;;;;;;;1.93;1.43;;;;;;;;;;5095406;28;20452;-89
2023/07/10 13:55:11;;;;;;;3.37;1.30;;;;;;;;;;5095979;28;20508;-86
2023/07/10 13:57:38;;;;;;;4.00;1.57;;;;;;;;;;5098591;28;20414;-85
2023/07/10 14:00:04;;;;;;;3.20;1.80;;;;;;;;;;5097136;28;20496;-87
2023/07/10 14:02:35;;;;;;;2.97;1.87;;;;;;;;;;5096529;28;20413;-87
2023/07/10 14:05:10;;;;;;;5.90;1.60;;;;;;;;;;5096960;28;20471;-87
2023/07/10 14:07:37;;;;;;;2.73;1.60;;;;;;;;;;5097197;28;20398;-88
2023/07/10 14:10:04;;;;;;;3.37;1.67;;;;;;;;;;5096371;28;20945;-85
2023/07/10 14:12:31;;;;;;;4.13;1.50;;;;;;;;;;5096751;28;20438;-86
2023/07/10 14:14:57;;;;;;;3.80;1.47;;;;;;;;;;5096673;28;20430;-85
2023/07/10 14:17:29;;;;;;;5.87;1.47;;;;;;;;;;5094745;28;20909;-87
2023/07/10 14:19:55;;;;;;;7.10;1.47;;;;;;;;;;5094852;28;20883;-88
2023/07/10 14:22:21;;;;;;;3.00;1.67;;;;;;;;;;5095520;28;20418;-87
2023/07/10 14:24:47;;;;;;;1.90;1.40;;;;;;;;;;5095761;28;20410;-84
2023/07/10 14:27:20;;;;;;;4.10;1.70;;;;;;;;;;5078552;28;20421;-86
2023/07/10 14:29:46;;;;;;;2.80;1.53;;;;;;;;;;5096506;28;20489;-84
2023/07/10 14:32:16;;;;;;;3.83;2.20;;;;;;;;;;5094773;28;20497;-84
2023/07/10 14:34:42;;;;;;;4.57;1.83;;;;;;;;;;5077983;28;20426;-85